sensor_id;sensor_type;location;lat;lon;timestamp;temperature;humidity
9984;DHT22;16737;50.932;6.780;2023-05-21T00:00:10;17.20;85.40
9984;DHT22;16737;50.932;6.780;2023-05-21T00:02:38;17.20;85.60
9984;DHT22;16737;50.932;6.780;2023-05-21T00:05:06;17.10;85.60
9984;DHT22;16737;50.932;6.780;2023-05-21T00:07:37;17.10;85.60
9984;DHT22;16737;50.932;6.780;2023-05-21T00:10:05;17.10;85.80
9984;DHT22;16737;50.932;6.780;2023-05-21T00:12:32;17.10;85.80
9984;DHT22;16737;50.932;6.780;2023-05-21T00:14:59;17.20;86.00
9984;DHT22;16737;50.932;6.780;2023-05-21T00:17:26;17.10;85.80
9984;DHT22;16737;50.932;6.780;2023-05-21T00:19:53;17.20;86.10
9984;DHT22;16737;50.932;6.780;2023-05-21T00:22:21;17.10;86.10
9984;DHT22;16737;50.932;6.780;2023-05-21T00:24:49;17.10;86.10
9984;DHT22;16737;50.932;6.780;2023-05-21T00:27:16;17.10;86.30
9984;DHT22;16737;50.932;6.780;2023-05-21T00:29:43;17.10;86.20
9984;DHT22;16737;50.932;6.780;2023-05-21T00:32:10;17.10;86.30
9984;DHT22;16737;50.932;6.780;2023-05-21T00:34:37;17.10;86.30
9984;DHT22;16737;50.932;6.780;2023-05-21T00:37:04;17.10;86.30
9984;DHT22;16737;50.932;6.780;2023-05-21T00:39:34;17.10;86.40
9984;DHT22;16737;50.932;6.780;2023-05-21T00:42:03;17.00;86.40
9984;DHT22;16737;50.932;6.780;2023-05-21T00:44:30;17.10;86.80
9984;DHT22;16737;50.932;6.780;2023-05-21T00:46:59;17.00;86.60
9984;DHT22;16737;50.932;6.780;2023-05-21T00:49:26;17.00;86.70
9984;DHT22;16737;50.932;6.780;2023-05-21T00:51:54;17.00;86.80
9984;DHT22;16737;50.932;6.780;2023-05-21T00:54:22;17.00;86.80
9984;DHT22;16737;50.932;6.780;2023-05-21T00:56:50;17.00;86.90
9984;DHT22;16737;50.932;6.780;2023-05-21T00:59:19;17.00;86.90
9984;DHT22;16737;50.932;6.780;2023-05-21T01:04:22;17.00;87.50
9984;DHT22;16737;50.932;6.780;2023-05-21T01:06:49;17.00;87.10
9984;DHT22;16737;50.932;6.780;2023-05-21T01:09:18;17.00;87.10
9984;DHT22;16737;50.932;6.780;2023-05-21T01:11:47;16.90;87.10
9984;DHT22;16737;50.932;6.780;2023-05-21T01:14:16;16.90;87.40
9984;DHT22;16737;50.932;6.780;2023-05-21T01:16:47;16.90;87.30
9984;DHT22;16737;50.932;6.780;2023-05-21T01:19:17;16.90;87.70
9984;DHT22;16737;50.932;6.780;2023-05-21T01:21:52;16.90;87.60
9984;DHT22;16737;50.932;6.780;2023-05-21T01:24:24;16.90;88.20
9984;DHT22;16737;50.932;6.780;2023-05-21T01:26:51;16.90;87.80
9984;DHT22;16737;50.932;6.780;2023-05-21T01:29:18;16.90;87.80
9984;DHT22;16737;50.932;6.780;2023-05-21T01:31:55;16.90;87.90
9984;DHT22;16737;50.932;6.780;2023-05-21T01:34:29;16.90;88.70
9984;DHT22;16737;50.932;6.780;2023-05-21T01:37:06;16.90;88.40
9984;DHT22;16737;50.932;6.780;2023-05-21T01:39:42;16.80;88.50
9984;DHT22;16737;50.932;6.780;2023-05-21T01:42:14;16.80;88.60
9984;DHT22;16737;50.932;6.780;2023-05-21T01:44:44;16.80;88.40
9984;DHT22;16737;50.932;6.780;2023-05-21T01:47:13;16.80;88.40
9984;DHT22;16737;50.932;6.780;2023-05-21T01:49:42;16.80;88.50
9984;DHT22;16737;50.932;6.780;2023-05-21T01:52:10;16.80;88.70
9984;DHT22;16737;50.932;6.780;2023-05-21T01:54:37;16.80;88.60
9984;DHT22;16737;50.932;6.780;2023-05-21T01:57:05;16.80;88.80
9984;DHT22;16737;50.932;6.780;2023-05-21T01:59:32;16.80;89.00
9984;DHT22;16737;50.932;6.780;2023-05-21T02:02:01;16.80;88.80
9984;DHT22;16737;50.932;6.780;2023-05-21T02:04:28;16.80;88.90
9984;DHT22;16737;50.932;6.780;2023-05-21T02:06:55;16.80;89.00
9984;DHT22;16737;50.932;6.780;2023-05-21T02:09:22;16.80;89.00
9984;DHT22;16737;50.932;6.780;2023-05-21T02:11:49;16.80;89.00
9984;DHT22;16737;50.932;6.780;2023-05-21T02:14:24;16.80;89.00
9984;DHT22;16737;50.932;6.780;2023-05-21T02:16:58;16.80;89.90
9984;DHT22;16737;50.932;6.780;2023-05-21T02:19:25;16.80;89.10
9984;DHT22;16737;50.932;6.780;2023-05-21T02:21:52;16.80;89.20
9984;DHT22;16737;50.932;6.780;2023-05-21T02:24:19;16.80;89.30
9984;DHT22;16737;50.932;6.780;2023-05-21T02:26:49;16.80;89.30
9984;DHT22;16737;50.932;6.780;2023-05-21T02:29:16;16.80;89.30
9984;DHT22;16737;50.932;6.780;2023-05-21T02:31:45;16.80;89.40
9984;DHT22;16737;50.932;6.780;2023-05-21T02:34:11;16.80;89.60
9984;DHT22;16737;50.932;6.780;2023-05-21T02:36:39;16.80;89.50
9984;DHT22;16737;50.932;6.780;2023-05-21T02:39:06;16.80;89.60
9984;DHT22;16737;50.932;6.780;2023-05-21T02:41:32;16.80;89.60
9984;DHT22;16737;50.932;6.780;2023-05-21T02:44:00;16.80;89.60
9984;DHT22;16737;50.932;6.780;2023-05-21T02:46:26;16.80;89.70
9984;DHT22;16737;50.932;6.780;2023-05-21T02:48:55;16.80;89.90
9984;DHT22;16737;50.932;6.780;2023-05-21T02:51:22;16.80;90.00
9984;DHT22;16737;50.932;6.780;2023-05-21T02:53:48;16.80;89.90
9984;DHT22;16737;50.932;6.780;2023-05-21T02:56:15;16.80;89.90
9984;DHT22;16737;50.932;6.780;2023-05-21T02:58:43;16.70;89.90
9984;DHT22;16737;50.932;6.780;2023-05-21T03:01:10;16.70;90.00
9984;DHT22;16737;50.932;6.780;2023-05-21T03:03:36;16.70;90.00
9984;DHT22;16737;50.932;6.780;2023-05-21T03:06:05;16.70;90.00
9984;DHT22;16737;50.932;6.780;2023-05-21T03:08:34;16.70;90.10
9984;DHT22;16737;50.932;6.780;2023-05-21T03:11:01;16.70;90.10
9984;DHT22;16737;50.932;6.780;2023-05-21T03:13:29;16.70;90.10
9984;DHT22;16737;50.932;6.780;2023-05-21T03:15:56;16.70;90.10
9984;DHT22;16737;50.932;6.780;2023-05-21T03:18:23;16.70;90.10
9984;DHT22;16737;50.932;6.780;2023-05-21T03:20:50;16.60;90.10
9984;DHT22;16737;50.932;6.780;2023-05-21T03:23:18;16.60;90.20
9984;DHT22;16737;50.932;6.780;2023-05-21T03:25:45;16.60;90.20
9984;DHT22;16737;50.932;6.780;2023-05-21T03:28:12;16.60;90.20
9984;DHT22;16737;50.932;6.780;2023-05-21T03:30:38;16.60;90.20
9984;DHT22;16737;50.932;6.780;2023-05-21T03:33:06;16.60;90.30
9984;DHT22;16737;50.932;6.780;2023-05-21T03:35:33;16.60;90.30
9984;DHT22;16737;50.932;6.780;2023-05-21T03:38:00;16.60;90.30
9984;DHT22;16737;50.932;6.780;2023-05-21T03:40:28;16.60;90.40
9984;DHT22;16737;50.932;6.780;2023-05-21T03:42:55;16.60;90.50
9984;DHT22;16737;50.932;6.780;2023-05-21T03:45:22;16.50;90.40
9984;DHT22;16737;50.932;6.780;2023-05-21T03:47:49;16.60;90.50
9984;DHT22;16737;50.932;6.780;2023-05-21T03:50:16;16.50;90.50
9984;DHT22;16737;50.932;6.780;2023-05-21T03:52:43;16.50;90.50
9984;DHT22;16737;50.932;6.780;2023-05-21T03:55:10;16.50;90.50
9984;DHT22;16737;50.932;6.780;2023-05-21T03:57:38;16.50;90.50
9984;DHT22;16737;50.932;6.780;2023-05-21T04:00:07;16.50;90.70
9984;DHT22;16737;50.932;6.780;2023-05-21T04:02:34;16.50;90.60
9984;DHT22;16737;50.932;6.780;2023-05-21T04:05:01;16.50;90.70
9984;DHT22;16737;50.932;6.780;2023-05-21T04:07:29;16.50;90.70
9984;DHT22;16737;50.932;6.780;2023-05-21T04:09:56;16.50;90.70
9984;DHT22;16737;50.932;6.780;2023-05-21T04:12:23;16.50;90.70
9984;DHT22;16737;50.932;6.780;2023-05-21T04:14:51;16.50;90.80
9984;DHT22;16737;50.932;6.780;2023-05-21T04:17:18;16.50;91.20
9984;DHT22;16737;50.932;6.780;2023-05-21T04:19:45;16.40;90.80
9984;DHT22;16737;50.932;6.780;2023-05-21T04:22:12;16.50;90.80
9984;DHT22;16737;50.932;6.780;2023-05-21T04:24:39;16.40;90.90
9984;DHT22;16737;50.932;6.780;2023-05-21T04:27:06;16.40;90.90
9984;DHT22;16737;50.932;6.780;2023-05-21T04:29:34;16.40;90.90
9984;DHT22;16737;50.932;6.780;2023-05-21T04:32:04;16.40;91.00
9984;DHT22;16737;50.932;6.780;2023-05-21T04:34:31;16.40;91.10
9984;DHT22;16737;50.932;6.780;2023-05-21T04:36:59;16.40;91.00
9984;DHT22;16737;50.932;6.780;2023-05-21T04:39:26;16.40;91.00
9984;DHT22;16737;50.932;6.780;2023-05-21T04:41:55;16.40;91.10
9984;DHT22;16737;50.932;6.780;2023-05-21T04:44:22;16.40;91.10
9984;DHT22;16737;50.932;6.780;2023-05-21T04:46:49;16.40;91.20
9984;DHT22;16737;50.932;6.780;2023-05-21T04:49:18;16.40;91.20
9984;DHT22;16737;50.932;6.780;2023-05-21T04:51:46;16.40;91.30
9984;DHT22;16737;50.932;6.780;2023-05-21T04:54:15;16.50;91.30
9984;DHT22;16737;50.932;6.780;2023-05-21T04:56:43;16.40;91.30
9984;DHT22;16737;50.932;6.780;2023-05-21T04:59:11;16.40;91.60
9984;DHT22;16737;50.932;6.780;2023-05-21T05:01:39;16.50;91.30
9984;DHT22;16737;50.932;6.780;2023-05-21T05:04:08;16.50;91.40
9984;DHT22;16737;50.932;6.780;2023-05-21T05:06:36;16.50;91.40
9984;DHT22;16737;50.932;6.780;2023-05-21T05:09:03;16.50;91.40
9984;DHT22;16737;50.932;6.780;2023-05-21T05:11:30;16.50;91.50
9984;DHT22;16737;50.932;6.780;2023-05-21T05:13:57;16.50;91.50
9984;DHT22;16737;50.932;6.780;2023-05-21T05:16:24;16.60;91.50
9984;DHT22;16737;50.932;6.780;2023-05-21T05:18:51;16.50;91.50
9984;DHT22;16737;50.932;6.780;2023-05-21T05:21:19;16.60;91.50
9984;DHT22;16737;50.932;6.780;2023-05-21T05:23:49;16.60;91.60
9984;DHT22;16737;50.932;6.780;2023-05-21T05:26:16;16.60;91.70
9984;DHT22;16737;50.932;6.780;2023-05-21T05:28:42;16.60;91.60
9984;DHT22;16737;50.932;6.780;2023-05-21T05:31:10;16.60;91.70
9984;DHT22;16737;50.932;6.780;2023-05-21T05:33:37;16.70;91.70
9984;DHT22;16737;50.932;6.780;2023-05-21T05:36:05;16.70;91.70
9984;DHT22;16737;50.932;6.780;2023-05-21T05:38:33;16.70;91.70
9984;DHT22;16737;50.932;6.780;2023-05-21T05:41:01;16.70;91.80
9984;DHT22;16737;50.932;6.780;2023-05-21T05:43:28;16.70;91.90
9984;DHT22;16737;50.932;6.780;2023-05-21T05:45:55;16.70;91.80
9984;DHT22;16737;50.932;6.780;2023-05-21T05:48:22;16.80;91.90
9984;DHT22;16737;50.932;6.780;2023-05-21T05:50:49;16.80;91.90
9984;DHT22;16737;50.932;6.780;2023-05-21T05:53:19;16.80;91.90
9984;DHT22;16737;50.932;6.780;2023-05-21T05:55:48;16.80;91.90
9984;DHT22;16737;50.932;6.780;2023-05-21T05:58:16;16.80;91.90
9984;DHT22;16737;50.932;6.780;2023-05-21T06:00:44;16.80;92.00
9984;DHT22;16737;50.932;6.780;2023-05-21T06:03:11;16.90;92.00
9984;DHT22;16737;50.932;6.780;2023-05-21T06:05:38;16.90;92.00
9984;DHT22;16737;50.932;6.780;2023-05-21T06:08:05;16.90;92.10
9984;DHT22;16737;50.932;6.780;2023-05-21T06:10:32;16.90;92.10
9984;DHT22;16737;50.932;6.780;2023-05-21T06:12:59;17.00;92.20
9984;DHT22;16737;50.932;6.780;2023-05-21T06:15:27;17.00;92.20
9984;DHT22;16737;50.932;6.780;2023-05-21T06:17:55;17.00;92.20
9984;DHT22;16737;50.932;6.780;2023-05-21T06:20:22;17.00;92.20
9984;DHT22;16737;50.932;6.780;2023-05-21T06:22:49;17.00;92.20
9984;DHT22;16737;50.932;6.780;2023-05-21T06:25:15;17.10;92.30
9984;DHT22;16737;50.932;6.780;2023-05-21T06:27:42;17.10;92.30
9984;DHT22;16737;50.932;6.780;2023-05-21T06:30:10;17.10;92.40
9984;DHT22;16737;50.932;6.780;2023-05-21T06:32:38;17.20;92.40
9984;DHT22;16737;50.932;6.780;2023-05-21T06:35:05;17.20;92.50
9984;DHT22;16737;50.932;6.780;2023-05-21T06:37:33;17.30;92.50
9984;DHT22;16737;50.932;6.780;2023-05-21T06:40:00;17.30;92.50
9984;DHT22;16737;50.932;6.780;2023-05-21T06:42:27;17.30;92.50
9984;DHT22;16737;50.932;6.780;2023-05-21T06:44:55;17.40;92.50
9984;DHT22;16737;50.932;6.780;2023-05-21T06:47:22;17.40;92.50
9984;DHT22;16737;50.932;6.780;2023-05-21T06:49:50;17.40;92.50
9984;DHT22;16737;50.932;6.780;2023-05-21T06:52:17;17.50;92.60
9984;DHT22;16737;50.932;6.780;2023-05-21T06:54:44;17.50;92.50
9984;DHT22;16737;50.932;6.780;2023-05-21T06:57:12;17.60;92.70
9984;DHT22;16737;50.932;6.780;2023-05-21T06:59:39;17.60;92.70
9984;DHT22;16737;50.932;6.780;2023-05-21T07:02:06;17.70;92.70
9984;DHT22;16737;50.932;6.780;2023-05-21T07:04:33;17.70;92.70
9984;DHT22;16737;50.932;6.780;2023-05-21T07:07:02;17.80;92.80
9984;DHT22;16737;50.932;6.780;2023-05-21T07:09:30;17.80;92.90
9984;DHT22;16737;50.932;6.780;2023-05-21T07:11:57;17.90;92.80
9984;DHT22;16737;50.932;6.780;2023-05-21T07:14:24;18.00;92.90
9984;DHT22;16737;50.932;6.780;2023-05-21T07:16:51;18.00;92.90
9984;DHT22;16737;50.932;6.780;2023-05-21T07:19:18;18.10;92.90
9984;DHT22;16737;50.932;6.780;2023-05-21T07:21:45;18.10;92.80
9984;DHT22;16737;50.932;6.780;2023-05-21T07:24:13;18.20;92.90
9984;DHT22;16737;50.932;6.780;2023-05-21T07:26:41;18.30;93.00
9984;DHT22;16737;50.932;6.780;2023-05-21T07:29:08;18.40;92.90
9984;DHT22;16737;50.932;6.780;2023-05-21T07:31:34;18.40;92.80
9984;DHT22;16737;50.932;6.780;2023-05-21T07:34:01;18.50;92.90
9984;DHT22;16737;50.932;6.780;2023-05-21T07:36:28;18.60;92.90
9984;DHT22;16737;50.932;6.780;2023-05-21T07:38:58;18.60;92.80
9984;DHT22;16737;50.932;6.780;2023-05-21T07:41:26;18.70;92.80
9984;DHT22;16737;50.932;6.780;2023-05-21T07:43:53;18.70;92.80
9984;DHT22;16737;50.932;6.780;2023-05-21T07:46:20;18.80;92.80
9984;DHT22;16737;50.932;6.780;2023-05-21T07:48:47;18.90;92.80
9984;DHT22;16737;50.932;6.780;2023-05-21T07:51:14;18.90;92.80
9984;DHT22;16737;50.932;6.780;2023-05-21T07:53:41;18.90;92.80
9984;DHT22;16737;50.932;6.780;2023-05-21T07:56:08;19.00;92.80
9984;DHT22;16737;50.932;6.780;2023-05-21T07:58:37;19.00;92.70
9984;DHT22;16737;50.932;6.780;2023-05-21T08:01:05;19.10;92.80
9984;DHT22;16737;50.932;6.780;2023-05-21T08:03:31;19.10;92.70
9984;DHT22;16737;50.932;6.780;2023-05-21T08:05:58;19.20;92.60
9984;DHT22;16737;50.932;6.780;2023-05-21T08:08:26;19.20;92.70
9984;DHT22;16737;50.932;6.780;2023-05-21T08:10:53;19.20;92.70
9984;DHT22;16737;50.932;6.780;2023-05-21T08:13:20;19.30;92.80
9984;DHT22;16737;50.932;6.780;2023-05-21T08:15:49;19.30;92.80
9984;DHT22;16737;50.932;6.780;2023-05-21T08:18:16;19.40;92.90
9984;DHT22;16737;50.932;6.780;2023-05-21T08:20:43;19.50;92.80
9984;DHT22;16737;50.932;6.780;2023-05-21T08:23:10;19.50;92.80
9984;DHT22;16737;50.932;6.780;2023-05-21T08:25:37;19.50;92.70
9984;DHT22;16737;50.932;6.780;2023-05-21T08:28:04;19.60;92.80
9984;DHT22;16737;50.932;6.780;2023-05-21T08:30:31;19.70;93.00
9984;DHT22;16737;50.932;6.780;2023-05-21T08:32:59;19.80;93.00
9984;DHT22;16737;50.932;6.780;2023-05-21T08:35:26;19.80;92.90
9984;DHT22;16737;50.932;6.780;2023-05-21T08:37:53;19.90;92.90
9984;DHT22;16737;50.932;6.780;2023-05-21T08:40:20;19.90;92.90
9984;DHT22;16737;50.932;6.780;2023-05-21T08:42:48;20.00;92.80
9984;DHT22;16737;50.932;6.780;2023-05-21T08:45:21;20.10;92.80
9984;DHT22;16737;50.932;6.780;2023-05-21T08:47:55;20.10;92.80
9984;DHT22;16737;50.932;6.780;2023-05-21T08:50:25;20.20;92.90
9984;DHT22;16737;50.932;6.780;2023-05-21T08:52:53;20.30;92.90
9984;DHT22;16737;50.932;6.780;2023-05-21T08:55:21;20.40;92.80
9984;DHT22;16737;50.932;6.780;2023-05-21T08:57:48;20.40;92.70
9984;DHT22;16737;50.932;6.780;2023-05-21T09:00:16;20.50;92.70
9984;DHT22;16737;50.932;6.780;2023-05-21T09:02:45;20.60;92.80
9984;DHT22;16737;50.932;6.780;2023-05-21T09:05:13;20.70;92.80
9984;DHT22;16737;50.932;6.780;2023-05-21T09:07:47;20.70;92.70
9984;DHT22;16737;50.932;6.780;2023-05-21T09:10:23;20.80;92.80
9984;DHT22;16737;50.932;6.780;2023-05-21T09:15:23;21.00;92.50
9984;DHT22;16737;50.932;6.780;2023-05-21T09:17:50;21.10;92.40
9984;DHT22;16737;50.932;6.780;2023-05-21T09:20:23;21.10;92.60
9984;DHT22;16737;50.932;6.780;2023-05-21T09:22:53;21.20;92.50
9984;DHT22;16737;50.932;6.780;2023-05-21T09:25:21;21.30;92.60
9984;DHT22;16737;50.932;6.780;2023-05-21T09:27:49;21.40;92.70
9984;DHT22;16737;50.932;6.780;2023-05-21T09:30:17;21.50;92.50
9984;DHT22;16737;50.932;6.780;2023-05-21T09:32:51;21.50;92.70
9984;DHT22;16737;50.932;6.780;2023-05-21T09:35:19;21.60;92.50
9984;DHT22;16737;50.932;6.780;2023-05-21T09:37:48;21.70;92.50
9984;DHT22;16737;50.932;6.780;2023-05-21T09:40:19;21.80;92.50
9984;DHT22;16737;50.932;6.780;2023-05-21T09:42:48;21.90;92.50
9984;DHT22;16737;50.932;6.780;2023-05-21T09:45:17;22.00;92.40
9984;DHT22;16737;50.932;6.780;2023-05-21T09:47:45;22.10;92.40
9984;DHT22;16737;50.932;6.780;2023-05-21T09:50:17;22.10;92.40
9984;DHT22;16737;50.932;6.780;2023-05-21T09:52:45;22.20;92.30
9984;DHT22;16737;50.932;6.780;2023-05-21T09:55:15;22.30;92.40
9984;DHT22;16737;50.932;6.780;2023-05-21T09:57:45;22.40;92.40
9984;DHT22;16737;50.932;6.780;2023-05-21T10:00:19;22.50;92.30
9984;DHT22;16737;50.932;6.780;2023-05-21T10:02:48;22.60;92.00
9984;DHT22;16737;50.932;6.780;2023-05-21T10:05:16;22.70;92.00
9984;DHT22;16737;50.932;6.780;2023-05-21T10:07:46;22.80;91.90
9984;DHT22;16737;50.932;6.780;2023-05-21T10:10:16;22.80;91.80
9984;DHT22;16737;50.932;6.780;2023-05-21T10:12:49;22.90;91.90
9984;DHT22;16737;50.932;6.780;2023-05-21T10:15:22;22.90;91.70
9984;DHT22;16737;50.932;6.780;2023-05-21T10:17:53;23.00;91.60
9984;DHT22;16737;50.932;6.780;2023-05-21T10:20:21;23.00;91.70
9984;DHT22;16737;50.932;6.780;2023-05-21T10:22:49;23.00;92.00
9984;DHT22;16737;50.932;6.780;2023-05-21T10:25:16;23.10;91.70
9984;DHT22;16737;50.932;6.780;2023-05-21T10:27:46;23.10;91.60
9984;DHT22;16737;50.932;6.780;2023-05-21T10:30:14;23.20;91.70
9984;DHT22;16737;50.932;6.780;2023-05-21T10:32:44;23.20;91.50
9984;DHT22;16737;50.932;6.780;2023-05-21T10:35:15;23.30;91.50
9984;DHT22;16737;50.932;6.780;2023-05-21T10:37:43;23.30;91.40
9984;DHT22;16737;50.932;6.780;2023-05-21T10:40:12;23.30;91.50
9984;DHT22;16737;50.932;6.780;2023-05-21T10:49:25;23.50;91.50
9984;DHT22;16737;50.932;6.780;2023-05-21T10:55:16;23.50;91.20
9984;DHT22;16737;50.932;6.780;2023-05-21T10:58:16;23.60;91.30
9984;DHT22;16737;50.932;6.780;2023-05-21T11:00:57;23.60;91.20
9984;DHT22;16737;50.932;6.780;2023-05-21T11:03:26;23.70;91.40
9984;DHT22;16737;50.932;6.780;2023-05-21T11:05:55;23.70;91.20
9984;DHT22;16737;50.932;6.780;2023-05-21T11:08:24;23.80;91.20
9984;DHT22;16737;50.932;6.780;2023-05-21T11:10:52;23.90;91.20
9984;DHT22;16737;50.932;6.780;2023-05-21T11:13:24;23.90;90.90
9984;DHT22;16737;50.932;6.780;2023-05-21T11:16:12;24.00;91.10
9984;DHT22;16737;50.932;6.780;2023-05-21T11:18:59;24.10;90.70
9984;DHT22;16737;50.932;6.780;2023-05-21T11:21:31;24.20;90.90
9984;DHT22;16737;50.932;6.780;2023-05-21T11:24:06;24.20;91.00
9984;DHT22;16737;50.932;6.780;2023-05-21T11:27:00;24.30;90.80
9984;DHT22;16737;50.932;6.780;2023-05-21T11:29:40;24.40;90.70
9984;DHT22;16737;50.932;6.780;2023-05-21T11:32:10;24.50;90.70
9984;DHT22;16737;50.932;6.780;2023-05-21T11:34:41;24.60;90.90
9984;DHT22;16737;50.932;6.780;2023-05-21T11:37:24;24.60;90.90
9984;DHT22;16737;50.932;6.780;2023-05-21T11:39:54;24.70;90.70
9984;DHT22;16737;50.932;6.780;2023-05-21T11:42:27;24.80;90.80
9984;DHT22;16737;50.932;6.780;2023-05-21T11:45:01;24.90;90.50
9984;DHT22;16737;50.932;6.780;2023-05-21T11:47:29;25.00;90.80
9984;DHT22;16737;50.932;6.780;2023-05-21T11:49:59;25.10;90.80
9984;DHT22;16737;50.932;6.780;2023-05-21T11:52:27;25.10;90.30
9984;DHT22;16737;50.932;6.780;2023-05-21T11:54:55;25.20;90.50
9984;DHT22;16737;50.932;6.780;2023-05-21T11:57:26;25.30;90.60
9984;DHT22;16737;50.932;6.780;2023-05-21T11:59:56;25.40;90.40
9984;DHT22;16737;50.932;6.780;2023-05-21T12:02:26;25.50;90.30
9984;DHT22;16737;50.932;6.780;2023-05-21T12:04:56;25.50;89.20
9984;DHT22;16737;50.932;6.780;2023-05-21T12:07:26;25.60;89.90
9984;DHT22;16737;50.932;6.780;2023-05-21T12:09:56;25.60;88.70
9984;DHT22;16737;50.932;6.780;2023-05-21T12:12:24;25.70;89.30
9984;DHT22;16737;50.932;6.780;2023-05-21T12:14:53;25.70;88.40
9984;DHT22;16737;50.932;6.780;2023-05-21T12:17:22;25.70;89.00
9984;DHT22;16737;50.932;6.780;2023-05-21T12:19:52;25.80;88.90
9984;DHT22;16737;50.932;6.780;2023-05-21T12:22:22;25.80;88.80
9984;DHT22;16737;50.932;6.780;2023-05-21T12:24:50;25.80;88.90
9984;DHT22;16737;50.932;6.780;2023-05-21T12:27:18;25.90;88.00
9984;DHT22;16737;50.932;6.780;2023-05-21T12:29:49;25.90;88.00
9984;DHT22;16737;50.932;6.780;2023-05-21T12:32:18;25.90;87.90
9984;DHT22;16737;50.932;6.780;2023-05-21T12:34:47;26.00;88.40
9984;DHT22;16737;50.932;6.780;2023-05-21T12:37:20;26.00;88.50
9984;DHT22;16737;50.932;6.780;2023-05-21T12:39:49;26.10;87.90
9984;DHT22;16737;50.932;6.780;2023-05-21T12:42:23;26.10;88.50
9984;DHT22;16737;50.932;6.780;2023-05-21T12:44:52;26.20;87.40
9984;DHT22;16737;50.932;6.780;2023-05-21T12:47:22;26.20;87.70
9984;DHT22;16737;50.932;6.780;2023-05-21T12:49:55;26.30;86.90
9984;DHT22;16737;50.932;6.780;2023-05-21T12:52:25;26.30;88.00
9984;DHT22;16737;50.932;6.780;2023-05-21T12:54:53;26.40;87.20
9984;DHT22;16737;50.932;6.780;2023-05-21T12:57:23;26.40;87.40
9984;DHT22;16737;50.932;6.780;2023-05-21T12:59:53;26.50;87.60
9984;DHT22;16737;50.932;6.780;2023-05-21T13:02:23;26.60;87.40
9984;DHT22;16737;50.932;6.780;2023-05-21T13:04:55;26.60;87.30
9984;DHT22;16737;50.932;6.780;2023-05-21T13:07:24;26.70;87.10
9984;DHT22;16737;50.932;6.780;2023-05-21T13:09:52;26.70;87.20
9984;DHT22;16737;50.932;6.780;2023-05-21T13:12:20;26.90;87.20
9984;DHT22;16737;50.932;6.780;2023-05-21T13:14:48;26.90;87.20
9984;DHT22;16737;50.932;6.780;2023-05-21T13:17:15;27.00;87.10
9984;DHT22;16737;50.932;6.780;2023-05-21T13:22:36;27.10;86.50
9984;DHT22;16737;50.932;6.780;2023-05-21T13:25:07;27.20;85.30
9984;DHT22;16737;50.932;6.780;2023-05-21T13:27:35;27.20;85.30
9984;DHT22;16737;50.932;6.780;2023-05-21T13:30:03;27.20;85.10
9984;DHT22;16737;50.932;6.780;2023-05-21T13:32:31;27.20;84.30
9984;DHT22;16737;50.932;6.780;2023-05-21T13:34:59;27.20;84.20
9984;DHT22;16737;50.932;6.780;2023-05-21T13:37:26;27.20;84.50
9984;DHT22;16737;50.932;6.780;2023-05-21T13:39:54;27.20;84.10
9984;DHT22;16737;50.932;6.780;2023-05-21T13:42:21;27.20;84.10
9984;DHT22;16737;50.932;6.780;2023-05-21T13:44:48;27.20;84.50
9984;DHT22;16737;50.932;6.780;2023-05-21T13:47:15;27.20;83.80
9984;DHT22;16737;50.932;6.780;2023-05-21T13:49:42;27.30;83.60
9984;DHT22;16737;50.932;6.780;2023-05-21T13:52:10;27.30;83.30
9984;DHT22;16737;50.932;6.780;2023-05-21T13:54:38;27.30;83.00
9984;DHT22;16737;50.932;6.780;2023-05-21T13:57:06;27.30;81.70
9984;DHT22;16737;50.932;6.780;2023-05-21T13:59:33;27.40;82.50
9984;DHT22;16737;50.932;6.780;2023-05-21T14:02:01;27.40;82.40
9984;DHT22;16737;50.932;6.780;2023-05-21T14:04:28;27.40;83.00
9984;DHT22;16737;50.932;6.780;2023-05-21T14:06:55;27.40;82.80
9984;DHT22;16737;50.932;6.780;2023-05-21T14:09:22;27.40;82.50
9984;DHT22;16737;50.932;6.780;2023-05-21T14:11:51;27.40;82.70
9984;DHT22;16737;50.932;6.780;2023-05-21T14:14:20;27.40;82.50
9984;DHT22;16737;50.932;6.780;2023-05-21T14:16:48;27.50;83.00
9984;DHT22;16737;50.932;6.780;2023-05-21T14:19:16;27.50;82.60
9984;DHT22;16737;50.932;6.780;2023-05-21T14:21:44;27.50;82.60
9984;DHT22;16737;50.932;6.780;2023-05-21T14:24:11;27.60;83.00
9984;DHT22;16737;50.932;6.780;2023-05-21T14:26:39;27.70;82.40
9984;DHT22;16737;50.932;6.780;2023-05-21T14:29:06;27.70;82.00
9984;DHT22;16737;50.932;6.780;2023-05-21T14:31:35;27.70;81.80
9984;DHT22;16737;50.932;6.780;2023-05-21T14:34:03;27.80;82.00
9984;DHT22;16737;50.932;6.780;2023-05-21T14:36:31;27.80;81.70
9984;DHT22;16737;50.932;6.780;2023-05-21T14:38:58;27.80;81.40
9984;DHT22;16737;50.932;6.780;2023-05-21T14:41:25;27.80;81.30
9984;DHT22;16737;50.932;6.780;2023-05-21T14:43:52;27.90;80.80
9984;DHT22;16737;50.932;6.780;2023-05-21T14:46:20;27.90;80.20
9984;DHT22;16737;50.932;6.780;2023-05-21T14:48:48;27.90;80.60
9984;DHT22;16737;50.932;6.780;2023-05-21T14:51:15;27.90;80.80
9984;DHT22;16737;50.932;6.780;2023-05-21T14:53:42;27.90;80.70
9984;DHT22;16737;50.932;6.780;2023-05-21T14:56:09;27.90;80.90
9984;DHT22;16737;50.932;6.780;2023-05-21T14:58:36;28.00;80.80
9984;DHT22;16737;50.932;6.780;2023-05-21T15:01:03;28.00;80.80
9984;DHT22;16737;50.932;6.780;2023-05-21T15:03:30;28.00;80.60
9984;DHT22;16737;50.932;6.780;2023-05-21T15:05:58;28.10;80.30
9984;DHT22;16737;50.932;6.780;2023-05-21T15:08:25;28.10;80.10
9984;DHT22;16737;50.932;6.780;2023-05-21T15:10:52;28.10;80.30
9984;DHT22;16737;50.932;6.780;2023-05-21T15:13:19;28.20;80.60
9984;DHT22;16737;50.932;6.780;2023-05-21T15:15:46;28.20;79.20
9984;DHT22;16737;50.932;6.780;2023-05-21T15:18:13;28.20;79.50
9984;DHT22;16737;50.932;6.780;2023-05-21T15:20:43;28.30;79.50
9984;DHT22;16737;50.932;6.780;2023-05-21T15:23:11;28.30;78.70
9984;DHT22;16737;50.932;6.780;2023-05-21T15:25:38;28.30;78.20
9984;DHT22;16737;50.932;6.780;2023-05-21T15:28:05;28.30;78.20
9984;DHT22;16737;50.932;6.780;2023-05-21T15:30:32;28.30;78.30
9984;DHT22;16737;50.932;6.780;2023-05-21T15:32:59;28.30;78.40
9984;DHT22;16737;50.932;6.780;2023-05-21T15:35:26;28.30;77.80
9984;DHT22;16737;50.932;6.780;2023-05-21T15:37:53;28.40;78.30
9984;DHT22;16737;50.932;6.780;2023-05-21T15:40:21;28.40;78.00
9984;DHT22;16737;50.932;6.780;2023-05-21T15:42:48;28.40;77.90
9984;DHT22;16737;50.932;6.780;2023-05-21T15:45:15;28.40;77.10
9984;DHT22;16737;50.932;6.780;2023-05-21T15:47:42;28.40;77.00
9984;DHT22;16737;50.932;6.780;2023-05-21T15:50:09;28.40;76.40
9984;DHT22;16737;50.932;6.780;2023-05-21T15:52:36;28.30;77.00
9984;DHT22;16737;50.932;6.780;2023-05-21T15:55:04;28.30;77.10
9984;DHT22;16737;50.932;6.780;2023-05-21T15:57:32;28.30;76.60
9984;DHT22;16737;50.932;6.780;2023-05-21T15:59:59;28.30;76.60
9984;DHT22;16737;50.932;6.780;2023-05-21T16:02:26;28.30;76.90
9984;DHT22;16737;50.932;6.780;2023-05-21T16:04:53;28.30;76.90
9984;DHT22;16737;50.932;6.780;2023-05-21T16:07:22;28.30;76.60
9984;DHT22;16737;50.932;6.780;2023-05-21T16:09:49;28.20;76.30